createdAt,value
2022-10-26T00:00:04.380Z,8.81
2022-10-26T00:01:04.397Z,8.78
2022-10-26T00:02:04.407Z,8.71
2022-10-26T00:03:04.374Z,8.75
2022-10-26T00:04:04.314Z,8.78
2022-10-26T00:05:04.227Z,8.69
2022-10-26T00:06:04.222Z,8.50
2022-10-26T00:07:04.193Z,8.45
2022-10-26T00:08:04.707Z,8.35
2022-10-26T00:09:04.232Z,8.22
2022-10-26T00:10:04.193Z,8.20
2022-10-26T00:11:04.164Z,8.25
2022-10-26T00:12:04.153Z,8.30
2022-10-26T00:13:04.267Z,8.44
2022-10-26T00:14:04.349Z,8.45
2022-10-26T00:15:04.227Z,8.48
2022-10-26T00:16:04.215Z,8.50
2022-10-26T00:17:04.268Z,8.58
2022-10-26T00:18:04.227Z,8.69
2022-10-26T00:19:04.278Z,8.66
2022-10-26T00:20:04.296Z,8.69
2022-10-26T00:21:04.187Z,8.69
2022-10-26T00:22:04.176Z,8.73
2022-10-26T00:23:04.232Z,8.79
2022-10-26T00:24:04.223Z,8.81
2022-10-26T00:25:04.204Z,8.81
2022-10-26T00:26:04.161Z,8.84
2022-10-26T00:27:04.136Z,8.81
2022-10-26T00:28:23.720Z,8.76
2022-10-26T00:29:04.146Z,8.88
2022-10-26T00:30:04.083Z,8.90
2022-10-26T00:31:04.049Z,8.99
2022-10-26T00:32:04.021Z,8.97
2022-10-26T00:33:04.185Z,8.91
2022-10-26T00:34:03.996Z,8.91
2022-10-26T00:35:11.851Z,8.91
2022-10-26T00:36:05.004Z,8.81
2022-10-26T00:37:04.150Z,8.79
2022-10-26T00:38:04.018Z,8.78
2022-10-26T00:39:04.035Z,8.73
2022-10-26T00:40:04.075Z,8.71
2022-10-26T00:41:04.039Z,8.71
2022-10-26T00:42:04.031Z,8.63
2022-10-26T00:43:04.049Z,8.72
2022-10-26T00:44:03.962Z,8.62
2022-10-26T00:45:04.033Z,8.63
2022-10-26T00:46:04.041Z,8.69
2022-10-26T00:47:03.939Z,8.73
2022-10-26T00:48:04.017Z,8.66
2022-10-26T00:49:03.973Z,8.72
2022-10-26T00:50:03.899Z,8.58
2022-10-26T00:51:03.968Z,8.57
2022-10-26T00:52:04.033Z,8.57
2022-10-26T00:53:03.879Z,8.71
2022-10-26T00:54:03.890Z,8.55
2022-10-26T00:55:03.872Z,8.55
2022-10-26T00:56:03.871Z,8.50
2022-10-26T00:57:03.969Z,8.50
2022-10-26T00:58:04.967Z,8.42
2022-10-26T00:59:03.921Z,8.40
2022-10-26T01:00:04.088Z,8.47
2022-10-26T01:01:03.958Z,8.57
2022-10-26T01:02:03.811Z,8.66
2022-10-26T01:03:03.973Z,8.62
2022-10-26T01:04:03.948Z,8.68
2022-10-26T01:05:03.824Z,8.58
2022-10-26T01:06:03.884Z,8.71
2022-10-26T01:07:03.963Z,8.69
2022-10-26T01:08:03.798Z,8.65
2022-10-26T01:09:03.959Z,8.72
2022-10-26T01:10:03.795Z,8.68
2022-10-26T01:11:03.767Z,8.84
2022-10-26T01:12:03.805Z,8.62
2022-10-26T01:13:03.811Z,8.60
2022-10-26T01:14:03.779Z,8.54
2022-10-26T01:15:03.724Z,8.47
2022-10-26T01:16:03.695Z,8.42
2022-10-26T01:18:04.677Z,8.40
2022-10-26T01:19:03.707Z,8.45
2022-10-26T01:20:03.706Z,8.60
2022-10-26T01:21:03.689Z,8.50
2022-10-26T01:22:03.787Z,8.62
2022-10-26T01:23:03.735Z,8.58
2022-10-26T01:24:03.767Z,8.72
2022-10-26T01:25:03.750Z,8.73
2022-10-26T01:26:03.753Z,8.78
2022-10-26T01:27:03.738Z,8.72
2022-10-26T01:28:03.726Z,8.88
2022-10-26T01:29:03.601Z,8.88
2022-10-26T01:30:03.780Z,8.84
2022-10-26T01:31:03.685Z,8.86
2022-10-26T01:32:03.601Z,8.83
2022-10-26T01:33:03.696Z,8.91
2022-10-26T01:34:03.664Z,8.93
2022-10-26T01:35:03.597Z,8.97
2022-10-26T01:36:03.668Z,8.90
2022-10-26T01:37:03.659Z,8.93
2022-10-26T01:38:03.551Z,8.97
2022-10-26T01:39:03.652Z,8.97
2022-10-26T01:40:03.712Z,9.04
2022-10-26T01:41:03.523Z,9.06
2022-10-26T01:42:03.680Z,9.05
2022-10-26T01:43:03.598Z,8.93
2022-10-26T01:44:03.519Z,8.99
2022-10-26T01:45:03.511Z,9.05
2022-10-26T01:46:03.660Z,8.84
2022-10-26T01:47:03.525Z,9.02
2022-10-26T01:48:03.593Z,8.99
2022-10-26T01:49:03.576Z,8.88
2022-10-26T01:50:03.566Z,8.96
2022-10-26T01:51:03.587Z,8.86
2022-10-26T01:52:03.526Z,8.93
2022-10-26T01:53:03.482Z,8.96
2022-10-26T01:54:03.552Z,8.96
2022-10-26T01:55:03.526Z,8.96
2022-10-26T01:56:03.446Z,8.86
2022-10-26T01:57:03.605Z,8.93
2022-10-26T01:58:03.510Z,8.97
2022-10-26T01:59:03.443Z,8.99
2022-10-26T02:00:03.514Z,9.06
2022-10-26T02:01:03.601Z,9.01
2022-10-26T02:02:03.630Z,8.93
2022-10-26T02:03:03.403Z,8.97
2022-10-26T02:04:03.524Z,8.93
2022-10-26T02:05:03.385Z,9.01
2022-10-26T02:06:03.359Z,8.96
2022-10-26T02:07:03.353Z,8.96
2022-10-26T02:08:03.419Z,8.90
2022-10-26T02:09:03.337Z,9.01
2022-10-26T02:10:03.333Z,8.91
2022-10-26T02:11:03.458Z,8.90
2022-10-26T02:12:03.335Z,9.01
2022-10-26T02:13:03.445Z,9.04
2022-10-26T02:14:03.448Z,9.04
2022-10-26T02:15:03.306Z,9.06
2022-10-26T02:16:03.402Z,9.09
2022-10-26T02:17:03.366Z,9.04
2022-10-26T02:18:03.271Z,9.06
2022-10-26T02:19:03.395Z,9.06
2022-10-26T02:20:03.357Z,9.13
2022-10-26T02:21:03.358Z,9.02
2022-10-26T02:22:03.363Z,9.06
2022-10-26T02:23:03.341Z,9.15
2022-10-26T02:24:03.357Z,9.09
2022-10-26T02:25:03.242Z,9.06
2022-10-26T02:26:03.321Z,9.13
2022-10-26T02:27:03.221Z,9.13
2022-10-26T02:28:03.229Z,9.02
2022-10-26T02:29:03.204Z,9.13
2022-10-26T02:30:03.254Z,9.06
2022-10-26T02:31:03.211Z,9.02
2022-10-26T02:32:03.182Z,8.97
2022-10-26T02:33:03.171Z,9.09
2022-10-26T02:34:03.294Z,9.06
2022-10-26T02:35:03.296Z,9.04
2022-10-26T02:36:03.180Z,9.10
2022-10-26T02:37:03.265Z,9.02
2022-10-26T02:38:03.229Z,9.12
2022-10-26T02:39:03.134Z,9.16
2022-10-26T02:40:03.231Z,9.16
2022-10-26T02:41:03.262Z,9.05
2022-10-26T02:42:03.095Z,8.94
2022-10-26T02:43:03.195Z,9.06
2022-10-26T02:44:03.223Z,9.12
2022-10-26T02:45:03.084Z,9.06
2022-10-26T02:46:03.223Z,9.13
2022-10-26T02:47:03.190Z,9.05
2022-10-26T02:48:03.083Z,8.99
2022-10-26T02:49:03.205Z,8.99
2022-10-26T02:50:03.062Z,9.01
2022-10-26T02:51:03.053Z,8.91
2022-10-26T02:52:03.116Z,8.91
2022-10-26T02:53:03.216Z,8.78
2022-10-26T02:54:03.173Z,8.71
2022-10-26T02:55:03.092Z,8.75
2022-10-26T02:56:03.084Z,8.63
2022-10-26T02:57:03.044Z,8.65
2022-10-26T02:58:03.097Z,8.62
2022-10-26T02:59:03.006Z,8.73
2022-10-26T03:00:03.041Z,8.71
2022-10-26T03:01:03.269Z,8.76
2022-10-26T03:02:03.100Z,8.66
2022-10-26T03:03:03.064Z,8.71
2022-10-26T03:04:03.098Z,8.79
2022-10-26T03:05:03.022Z,8.75
2022-10-26T03:06:02.937Z,8.78
2022-10-26T03:07:03.010Z,8.76
2022-10-26T03:08:03.324Z,8.68
2022-10-26T03:09:03.975Z,8.66
2022-10-26T03:10:02.980Z,8.72
2022-10-26T03:11:02.913Z,8.68
2022-10-26T03:12:02.888Z,8.81
2022-10-26T03:13:02.934Z,8.76
2022-10-26T03:14:03.000Z,8.86
2022-10-26T03:15:02.852Z,8.90
2022-10-26T03:16:02.856Z,8.88
2022-10-26T03:17:02.878Z,8.97
2022-10-26T03:18:02.859Z,8.93
2022-10-26T03:19:02.848Z,8.93
2022-10-26T03:20:02.875Z,9.05
2022-10-26T03:21:02.817Z,9.05
2022-10-26T06:13:02.398Z,8.84
2022-10-26T06:14:02.250Z,8.81
2022-10-26T06:15:03.421Z,9.02
2022-10-26T06:16:03.296Z,9.01
2022-10-26T06:17:03.305Z,8.97
2022-10-26T06:18:03.333Z,9.13
2022-10-26T06:19:03.322Z,9.18
2022-10-26T06:20:03.424Z,9.21
2022-10-26T06:21:03.309Z,9.23
2022-10-26T06:22:03.377Z,9.28
2022-10-26T06:23:03.415Z,9.45
2022-10-26T06:24:03.336Z,9.45
2022-10-26T06:25:03.347Z,9.48
2022-10-26T06:26:03.326Z,9.46
2022-10-26T06:27:03.336Z,9.50
2022-10-26T06:28:03.341Z,9.52
2022-10-26T06:29:03.343Z,9.50
2022-10-26T06:30:03.369Z,9.49
2022-10-26T06:31:03.327Z,9.48
2022-10-26T06:32:03.365Z,9.57
2022-10-26T06:33:06.338Z,9.57
2022-10-26T06:34:05.366Z,9.60
2022-10-26T06:35:07.026Z,9.70
2022-10-26T06:36:04.185Z,9.70
2022-10-26T06:37:03.151Z,9.73
2022-10-26T06:38:03.272Z,9.79
2022-10-26T06:39:03.273Z,9.76
2022-10-26T06:40:03.215Z,9.66
2022-10-26T06:41:03.227Z,9.61
2022-10-26T06:42:03.231Z,9.63
2022-10-26T06:43:03.250Z,9.63
2022-10-26T06:44:03.231Z,9.71
2022-10-26T06:45:03.350Z,9.70
2022-10-26T06:46:03.188Z,9.73
2022-10-26T06:47:03.210Z,9.76
2022-10-26T06:48:03.190Z,9.67
2022-10-26T06:49:03.201Z,9.78
2022-10-26T06:50:03.182Z,9.78
2022-10-26T06:51:03.187Z,9.71
2022-10-26T06:52:03.152Z,9.89
2022-10-26T06:53:03.164Z,9.85
2022-10-26T06:54:03.060Z,9.99
2022-10-26T06:55:03.074Z,9.94
2022-10-26T06:56:03.063Z,10.03
2022-10-26T06:57:03.048Z,10.10
2022-10-26T06:58:03.019Z,10.12
2022-10-26T06:59:04.889Z,10.09
2022-10-26T07:00:02.998Z,10.00
2022-10-26T07:01:03.097Z,10.19
2022-10-26T07:02:05.774Z,10.14
2022-10-26T07:03:03.042Z,10.17
2022-10-26T07:04:03.102Z,10.06
2022-10-26T07:05:03.046Z,10.14
2022-10-26T07:06:03.114Z,10.22
2022-10-26T07:07:03.144Z,10.24
2022-10-26T07:08:03.050Z,10.24
2022-10-26T07:09:03.031Z,10.17
2022-10-26T07:10:03.033Z,10.21
2022-10-26T07:11:03.030Z,10.24
2022-10-26T07:12:03.069Z,10.24
2022-10-26T07:13:03.019Z,10.24
2022-10-26T07:14:02.978Z,10.28
2022-10-26T07:15:03.085Z,10.33
2022-10-26T07:16:03.022Z,10.33
2022-10-26T07:17:03.136Z,10.30
2022-10-26T07:18:03.119Z,10.36
2022-10-26T07:19:02.887Z,10.40
2022-10-26T07:20:02.908Z,10.47
2022-10-26T07:21:02.885Z,10.46
2022-10-26T07:22:02.878Z,10.46
2022-10-26T07:23:02.977Z,10.58
2022-10-26T07:24:02.855Z,10.52
2022-10-26T07:25:03.371Z,10.53
2022-10-26T07:26:02.859Z,10.66
2022-10-26T07:27:02.846Z,10.68
2022-10-26T07:28:02.863Z,10.71
2022-10-26T07:29:02.814Z,10.68
2022-10-26T07:30:03.916Z,10.71
2022-10-26T07:31:02.880Z,10.73
2022-10-26T07:32:02.907Z,10.89
2022-10-26T07:33:02.919Z,10.88
2022-10-26T07:34:02.925Z,10.95
2022-10-26T07:35:02.861Z,10.95
2022-10-26T07:36:02.905Z,11.09
2022-10-26T07:37:02.851Z,11.06
2022-10-26T07:38:02.866Z,11.03
2022-10-26T07:39:02.942Z,11.01
2022-10-26T07:40:06.436Z,10.95
2022-10-26T07:41:03.847Z,10.95
2022-10-26T07:42:02.833Z,10.89
2022-10-26T07:43:02.876Z,10.91
2022-10-26T07:44:02.897Z,10.95
2022-10-26T07:45:03.339Z,10.95
2022-10-26T07:46:02.858Z,10.99
2022-10-26T07:47:02.776Z,11.03
2022-10-26T07:48:02.728Z,11.02
2022-10-26T07:49:02.687Z,11.10
2022-10-26T07:50:02.709Z,11.09
2022-10-26T07:51:03.255Z,11.13
2022-10-26T07:52:03.642Z,11.19
2022-10-26T07:53:02.628Z,11.13
2022-10-26T07:54:02.746Z,11.20
2022-10-26T07:55:02.766Z,11.06
2022-10-26T07:56:02.654Z,11.09
2022-10-26T07:57:02.780Z,11.19
2022-10-26T07:58:02.733Z,11.20
2022-10-26T07:59:02.600Z,11.10
2022-10-26T08:00:02.725Z,11.20
2022-10-26T08:01:02.821Z,11.06
2022-10-26T08:02:02.627Z,11.07
2022-10-26T08:03:02.624Z,11.09
2022-10-26T08:04:02.747Z,11.07
2022-10-26T08:05:02.575Z,10.99
2022-10-26T08:06:02.805Z,11.02
2022-10-26T08:07:02.644Z,11.03
2022-10-26T08:08:02.636Z,11.07
2022-10-26T08:09:02.659Z,11.13
2022-10-26T08:10:02.641Z,11.09
2022-10-26T08:11:02.629Z,11.11
2022-10-26T08:12:02.645Z,11.09
2022-10-26T08:13:02.626Z,11.17
2022-10-26T08:14:02.642Z,11.14
2022-10-26T08:15:02.618Z,11.19
2022-10-26T08:16:02.672Z,11.31
2022-10-26T08:17:02.985Z,11.31
2022-10-26T08:18:02.564Z,11.25
2022-10-26T08:19:02.580Z,11.34
2022-10-26T08:20:02.609Z,11.24
2022-10-26T08:21:10.680Z,11.31
2022-10-26T08:22:03.796Z,11.39
2022-10-26T08:23:02.439Z,11.38
2022-10-26T08:24:02.435Z,11.46
2022-10-26T08:25:02.457Z,11.36
2022-10-26T08:26:02.514Z,11.35
2022-10-26T08:27:02.417Z,11.46
2022-10-26T08:28:02.633Z,11.39
2022-10-26T08:29:02.471Z,11.54
2022-10-26T08:30:02.470Z,11.50
2022-10-26T08:31:02.431Z,11.47
2022-10-26T08:32:02.431Z,11.54
2022-10-26T08:33:02.581Z,11.57
2022-10-26T08:34:02.613Z,11.54
2022-10-26T08:35:02.579Z,11.50
2022-10-26T08:36:02.656Z,11.54
2022-10-26T08:37:02.566Z,11.56
2022-10-26T08:38:02.489Z,11.44
2022-10-26T08:39:02.612Z,11.52
2022-10-26T08:40:03.454Z,11.54
2022-10-26T08:41:02.477Z,11.50
2022-10-26T08:42:02.441Z,11.47
2022-10-26T08:43:03.460Z,11.44
2022-10-26T08:44:02.520Z,11.49
2022-10-26T08:45:02.410Z,11.61
2022-10-26T08:46:02.524Z,11.61
2022-10-26T08:47:02.478Z,11.59
2022-10-26T08:48:02.413Z,11.61
2022-10-26T08:49:02.633Z,11.71
2022-10-26T08:50:02.386Z,11.67
2022-10-26T08:51:03.277Z,11.75
2022-10-26T08:52:02.331Z,11.75
2022-10-26T08:53:02.305Z,11.83
2022-10-26T08:54:02.277Z,11.89
2022-10-26T08:55:02.387Z,11.85
2022-10-26T08:56:02.391Z,11.85
2022-10-26T08:57:02.284Z,11.93
2022-10-26T08:58:02.267Z,12.06
2022-10-26T08:59:02.308Z,12.08
2022-10-26T09:00:02.306Z,12.09
2022-10-26T09:01:02.262Z,12.09
2022-10-26T09:02:02.378Z,12.04
2022-10-26T09:03:02.300Z,12.08
2022-10-26T09:05:03.482Z,12.09
2022-10-26T09:06:02.352Z,12.06
2022-10-26T09:07:03.298Z,12.09
2022-10-26T09:08:02.317Z,12.12
2022-10-26T09:09:06.156Z,12.05
2022-10-26T09:10:02.279Z,12.11
2022-10-26T09:11:02.301Z,12.05
2022-10-26T09:12:02.206Z,12.19
2022-10-26T09:13:02.190Z,12.26
2022-10-26T09:14:02.321Z,12.33
2022-10-26T09:15:02.179Z,12.33
2022-10-26T09:16:02.391Z,12.42
2022-10-26T09:17:02.211Z,12.44
2022-10-26T09:18:02.303Z,12.41
2022-10-26T09:19:03.037Z,12.41
2022-10-26T09:20:02.509Z,12.48
2022-10-26T09:21:02.242Z,12.51
2022-10-26T09:22:02.280Z,12.48
2022-10-26T09:23:02.289Z,12.56
2022-10-26T09:24:02.530Z,12.57
2022-10-26T09:25:05.420Z,12.49
2022-10-26T09:26:04.064Z,12.54
2022-10-26T09:27:02.111Z,12.57
2022-10-26T09:28:02.118Z,12.52
2022-10-26T09:29:02.087Z,12.51
2022-10-26T09:30:02.007Z,12.64
2022-10-26T09:31:02.107Z,12.60
2022-10-26T09:32:02.166Z,12.64
2022-10-26T09:33:02.208Z,12.67
2022-10-26T09:34:02.162Z,12.70
2022-10-26T09:35:02.088Z,12.70
2022-10-26T09:36:02.355Z,12.82
2022-10-26T09:37:02.232Z,12.75
2022-10-26T09:38:02.264Z,12.75
2022-10-26T09:39:02.150Z,12.85
2022-10-26T09:40:02.051Z,12.87
2022-10-26T09:41:02.125Z,12.96
2022-10-26T09:42:02.137Z,12.84
2022-10-26T09:43:01.997Z,12.82
2022-10-26T09:44:01.935Z,12.85
2022-10-26T09:45:01.910Z,12.89
2022-10-26T09:46:04.451Z,12.93
2022-10-26T09:47:01.944Z,12.93
2022-10-26T09:48:05.171Z,12.92
2022-10-26T09:50:01.978Z,12.97
2022-10-26T09:51:04.576Z,12.87
2022-10-26T09:52:03.035Z,12.95
2022-10-26T09:53:02.084Z,12.88
2022-10-26T09:54:01.983Z,12.93
2022-10-26T09:55:01.940Z,12.89
2022-10-26T09:56:01.955Z,12.93
2022-10-26T09:57:01.912Z,12.99
2022-10-26T09:58:02.027Z,12.84
2022-10-26T09:59:01.861Z,12.96
2022-10-26T10:00:01.950Z,12.99
2022-10-26T10:01:01.871Z,13.06
2022-10-26T10:02:02.018Z,12.99
2022-10-26T10:03:01.998Z,13.03
2022-10-26T10:04:01.995Z,13.18
2022-10-26T10:05:01.884Z,13.15
2022-10-26T10:06:01.952Z,13.33
2022-10-26T10:07:01.859Z,13.44
2022-10-26T10:08:01.920Z,13.38
2022-10-26T10:09:01.845Z,13.51
2022-10-26T10:10:01.838Z,13.49
2022-10-26T10:11:01.736Z,13.52
2022-10-26T10:12:01.681Z,13.52
2022-10-26T10:13:01.714Z,13.43
2022-10-26T10:14:01.806Z,13.46
2022-10-26T10:15:01.776Z,13.55
2022-10-26T10:16:01.702Z,13.38
2022-10-26T10:17:01.700Z,13.56
2022-10-26T10:18:01.737Z,13.55
2022-10-26T10:19:01.756Z,13.56
2022-10-26T10:20:01.780Z,13.61
2022-10-26T10:21:02.805Z,13.63
2022-10-26T10:22:01.764Z,13.62
2022-10-26T10:23:01.806Z,13.61
2022-10-26T10:24:01.828Z,13.62
2022-10-26T10:25:01.759Z,13.81
2022-10-26T10:26:02.128Z,13.89
2022-10-26T10:27:01.772Z,13.89
2022-10-26T10:28:01.759Z,13.92
2022-10-26T10:29:01.793Z,13.92
2022-10-26T10:30:04.247Z,14.13
2022-10-26T10:31:01.724Z,14.14
2022-10-26T10:32:01.817Z,14.20
2022-10-26T10:33:01.667Z,14.02
2022-10-26T10:34:01.669Z,14.04
2022-10-26T10:35:01.751Z,14.16
2022-10-26T10:36:01.684Z,14.28
2022-10-26T10:37:01.765Z,14.43
2022-10-26T10:38:01.616Z,14.39
2022-10-26T10:39:01.667Z,14.54
2022-10-26T10:40:01.536Z,14.64
2022-10-26T10:41:01.652Z,14.57
2022-10-26T10:42:01.598Z,14.60
2022-10-26T10:43:01.647Z,14.65
2022-10-26T10:44:01.515Z,14.69
2022-10-26T10:45:01.722Z,14.80
2022-10-26T10:46:01.720Z,14.83
2022-10-26T10:47:01.586Z,14.67
2022-10-26T10:48:01.708Z,14.83
2022-10-26T10:49:01.559Z,14.78
2022-10-26T10:50:01.650Z,14.90
2022-10-26T10:51:01.534Z,15.09
2022-10-26T10:52:01.598Z,15.11
2022-10-26T10:53:01.693Z,15.31
2022-10-26T10:54:01.950Z,15.28
2022-10-26T10:55:01.518Z,15.30
2022-10-26T10:56:01.540Z,15.28
2022-10-26T10:57:01.527Z,15.24
2022-10-26T10:58:01.635Z,15.20
2022-10-26T10:59:01.434Z,15.28
2022-10-26T11:00:01.551Z,15.41
2022-10-26T11:01:01.413Z,15.49
2022-10-26T11:02:01.712Z,15.38
2022-10-26T11:03:01.340Z,15.49
2022-10-26T11:04:01.407Z,15.52
2022-10-26T11:05:01.410Z,15.56
2022-10-26T11:06:01.641Z,15.67
2022-10-26T11:07:01.453Z,15.70
2022-10-26T11:08:01.440Z,15.72
2022-10-26T11:09:01.479Z,15.57
2022-10-26T11:10:01.440Z,15.72
2022-10-26T11:11:01.562Z,15.72
2022-10-26T11:12:01.495Z,15.85
2022-10-26T11:13:01.500Z,15.94
2022-10-26T11:14:01.385Z,15.93
2022-10-26T11:15:01.382Z,15.86
2022-10-26T11:16:01.558Z,15.97
2022-10-26T11:17:01.310Z,16.04
2022-10-26T11:18:02.345Z,16.06
2022-10-26T11:19:01.349Z,16.09
2022-10-26T11:20:01.364Z,16.06
2022-10-26T11:21:01.353Z,16.09
2022-10-26T11:22:01.307Z,16.00
2022-10-26T11:23:01.679Z,16.14
2022-10-26T11:24:01.405Z,16.11
2022-10-26T11:25:01.329Z,15.97
2022-10-26T11:26:01.358Z,16.07
2022-10-26T11:27:01.272Z,16.26
2022-10-26T11:28:01.233Z,16.25
2022-10-26T11:29:01.153Z,16.38
2022-10-26T11:30:01.134Z,16.30
2022-10-26T11:31:01.192Z,16.42
2022-10-26T11:32:01.258Z,16.34
2022-10-26T11:33:01.191Z,16.55
2022-10-26T11:34:01.229Z,16.55
2022-10-26T11:35:01.298Z,16.65
2022-10-26T11:36:01.183Z,16.65
2022-10-26T11:37:01.271Z,16.73
2022-10-26T11:38:01.556Z,16.73
2022-10-26T11:39:04.018Z,16.88
2022-10-26T11:40:03.156Z,16.98
2022-10-26T11:41:01.229Z,17.03
2022-10-26T11:42:01.514Z,17.10
2022-10-26T11:43:01.237Z,17.32
2022-10-26T11:44:01.199Z,17.40
2022-10-26T11:45:01.171Z,17.46
2022-10-26T11:46:01.171Z,17.54
2022-10-26T11:47:01.172Z,17.59
2022-10-26T11:48:01.170Z,17.69
2022-10-26T11:49:01.195Z,17.73
2022-10-26T11:50:01.156Z,17.81
2022-10-26T11:51:01.142Z,17.91
2022-10-26T11:52:01.095Z,17.91
2022-10-26T11:53:00.994Z,17.84
2022-10-26T11:54:01.065Z,17.95
2022-10-26T11:55:01.064Z,18.10
2022-10-26T11:56:00.988Z,18.04
2022-10-26T11:57:01.193Z,18.15
2022-10-26T11:58:01.100Z,18.10
2022-10-26T12:00:01.136Z,18.27
2022-10-26T12:01:01.072Z,18.18
2022-10-26T12:02:01.058Z,18.28
2022-10-26T12:03:01.113Z,18.22
2022-10-26T12:04:01.215Z,18.27
2022-10-26T12:05:01.055Z,18.39
2022-10-26T12:06:01.075Z,18.39
2022-10-26T12:07:00.999Z,18.49
2022-10-26T12:08:01.010Z,18.46
2022-10-26T12:09:01.072Z,18.49
2022-10-26T12:10:01.012Z,18.58
2022-10-26T12:11:01.100Z,18.57
2022-10-26T12:12:01.087Z,18.52
2022-10-26T12:13:01.037Z,18.54
2022-10-26T12:14:01.017Z,18.44
2022-10-26T12:15:00.935Z,18.31
2022-10-26T12:16:03.935Z,18.43
2022-10-26T12:17:01.845Z,18.46
2022-10-26T12:18:00.836Z,18.50
2022-10-26T12:19:00.837Z,18.52
2022-10-26T12:20:00.846Z,18.55
2022-10-26T12:21:00.848Z,18.62
2022-10-26T12:22:00.848Z,18.73
2022-10-26T12:23:00.824Z,18.79
2022-10-26T12:24:00.813Z,18.74
2022-10-26T12:25:00.855Z,18.87
2022-10-26T12:26:00.871Z,18.90
2022-10-26T12:27:01.292Z,19.15
2022-10-26T12:28:00.875Z,19.21
2022-10-26T12:29:00.880Z,19.38
2022-10-26T12:30:00.875Z,19.55
2022-10-26T12:31:00.847Z,19.78
2022-10-26T12:32:00.914Z,19.78
2022-10-26T12:33:00.896Z,19.83
2022-10-26T12:34:00.846Z,19.94
2022-10-26T12:35:00.836Z,20.05
2022-10-26T12:36:00.879Z,19.88
2022-10-26T12:37:00.821Z,19.68
2022-10-26T12:38:00.851Z,19.46
2022-10-26T12:39:00.888Z,19.11
2022-10-26T12:40:00.815Z,19.05
2022-10-26T12:41:00.719Z,18.95
2022-10-26T12:42:00.943Z,18.82
2022-10-26T12:43:00.715Z,18.73
2022-10-26T12:44:02.726Z,18.72
2022-10-26T12:45:00.605Z,18.77
2022-10-26T12:46:00.589Z,18.55
2022-10-26T12:47:00.620Z,18.57
2022-10-26T12:48:07.016Z,18.54
2022-10-26T12:49:02.582Z,18.57
2022-10-26T12:50:00.545Z,18.54
2022-10-26T12:51:00.653Z,18.49
2022-10-26T12:53:00.652Z,18.33
2022-10-26T12:54:00.741Z,18.09
2022-10-26T12:55:00.700Z,18.04
2022-10-26T12:56:00.628Z,18.10
2022-10-26T12:57:00.641Z,18.02
2022-10-26T12:58:00.496Z,18.09
2022-10-26T12:59:04.470Z,18.12
2022-10-26T13:00:01.667Z,18.21
2022-10-26T13:01:00.639Z,18.25
2022-10-26T13:02:00.591Z,18.33
2022-10-26T13:03:00.581Z,18.21
2022-10-26T13:04:00.577Z,18.31
2022-10-26T13:05:00.657Z,18.33
2022-10-26T13:06:00.565Z,18.54
2022-10-26T13:07:00.548Z,18.50
2022-10-26T13:08:00.527Z,18.62
2022-10-26T13:09:00.825Z,18.72
2022-10-26T13:10:00.555Z,18.73
2022-10-26T13:11:00.585Z,18.70
2022-10-26T13:12:00.523Z,18.80
2022-10-26T13:13:00.493Z,18.95
2022-10-26T13:14:00.504Z,18.99
2022-10-26T13:15:00.489Z,19.15
2022-10-26T13:16:00.435Z,19.17
2022-10-26T13:17:00.595Z,19.33
2022-10-26T13:18:00.477Z,19.42
2022-10-26T13:19:00.447Z,19.50
2022-10-26T13:20:00.355Z,19.43
2022-10-26T13:21:00.378Z,19.57
2022-10-26T13:22:00.428Z,19.72
2022-10-26T13:24:00.333Z,21.14
2022-10-26T13:25:00.320Z,21.97
2022-10-26T13:26:00.305Z,22.53
2022-10-26T13:27:00.436Z,22.71
2022-10-26T13:28:01.451Z,22.68
2022-10-26T13:29:00.312Z,22.43
2022-10-26T13:30:00.275Z,21.98
2022-10-26T13:31:00.379Z,21.36
2022-10-26T13:32:00.378Z,21.44
2022-10-26T13:33:00.629Z,21.85
2022-10-26T13:34:00.319Z,22.47
2022-10-26T13:35:00.359Z,22.93
2022-10-26T13:36:00.318Z,23.50
2022-10-26T13:37:01.349Z,23.31
2022-10-26T13:38:00.332Z,22.74
2022-10-26T13:39:00.306Z,22.53
2022-10-26T13:40:00.419Z,22.23
2022-10-26T13:41:00.333Z,22.43
2022-10-26T13:42:00.332Z,22.25
2022-10-26T13:43:00.389Z,22.46
2022-10-26T13:44:00.319Z,23.19
2022-10-26T13:45:00.426Z,23.70
2022-10-26T13:46:00.355Z,24.39
2022-10-26T13:47:00.334Z,24.00
2022-10-26T13:48:00.733Z,23.75
2022-10-26T13:49:00.291Z,23.97
2022-10-26T13:50:00.384Z,24.39
2022-10-26T13:51:00.254Z,24.35
2022-10-26T13:52:00.579Z,23.60
2022-10-26T13:53:00.292Z,23.76
2022-10-26T13:54:00.523Z,24.57
2022-10-26T13:55:00.451Z,24.85
2022-10-26T13:56:00.333Z,24.77
2022-10-26T13:57:00.139Z,25.05
2022-10-26T13:58:00.197Z,25.46
2022-10-26T13:59:00.169Z,25.75
2022-10-26T14:00:03.900Z,25.93
2022-10-26T14:01:01.155Z,25.56
2022-10-26T14:02:00.105Z,25.83
2022-10-26T14:03:00.132Z,26.18
2022-10-26T14:04:00.201Z,25.98
2022-10-26T14:05:00.253Z,26.31
2022-10-26T14:06:00.181Z,26.59
2022-10-26T14:07:00.209Z,26.92
2022-10-26T14:08:00.248Z,26.84
2022-10-26T14:09:00.151Z,26.54
2022-10-26T14:10:00.133Z,26.69
2022-10-26T14:11:00.135Z,26.84
2022-10-26T14:12:00.044Z,26.69
2022-10-26T14:13:00.118Z,26.81
2022-10-26T14:14:00.060Z,26.64
2022-10-26T14:15:00.072Z,26.55
2022-10-26T14:16:00.151Z,26.47
2022-10-26T14:17:00.027Z,26.55
2022-10-26T14:18:00.062Z,26.31
2022-10-26T14:19:00.021Z,26.61
2022-10-26T14:19:59.945Z,26.81
2022-10-26T14:20:59.953Z,26.52
2022-10-26T14:21:59.998Z,26.20
2022-10-26T14:22:59.923Z,25.86
2022-10-26T14:23:59.903Z,26.21
2022-10-26T14:24:59.916Z,26.39
2022-10-26T14:25:59.927Z,26.52
2022-10-26T14:26:59.895Z,26.62
2022-10-26T14:27:59.863Z,26.59
2022-10-26T14:28:59.931Z,26.62
2022-10-26T14:30:24.241Z,26.42
2022-10-26T14:31:02.044Z,26.18
2022-10-26T14:31:59.840Z,26.12
2022-10-26T14:32:59.919Z,25.61
2022-10-26T14:33:59.913Z,25.53
2022-10-26T14:34:59.901Z,25.53
2022-10-26T14:35:59.977Z,25.22
2022-10-26T14:37:00.109Z,25.31
2022-10-26T14:37:59.912Z,25.27
2022-10-26T14:38:59.879Z,25.01
2022-10-26T14:39:59.887Z,24.69
2022-10-26T14:40:59.992Z,24.04
2022-10-26T14:42:00.226Z,23.76
2022-10-26T14:42:59.884Z,23.60
2022-10-26T14:43:59.874Z,23.39
2022-10-26T14:44:59.843Z,23.17
2022-10-26T14:46:00.243Z,22.77
2022-10-26T14:46:59.803Z,22.52
2022-10-26T14:48:00.104Z,22.13
2022-10-26T14:48:59.938Z,21.98
2022-10-26T14:50:59.781Z,21.29
2022-10-26T14:51:59.724Z,21.29
2022-10-26T14:52:59.888Z,21.19
2022-10-26T14:54:00.097Z,21.06
2022-10-26T14:55:00.000Z,20.91
2022-10-26T14:55:59.897Z,20.90
2022-10-26T14:56:59.756Z,20.77
2022-10-26T14:57:59.882Z,20.72
2022-10-26T14:59:00.090Z,20.53
2022-10-26T14:59:59.948Z,20.59
2022-10-26T15:00:59.900Z,20.56
2022-10-26T15:01:59.951Z,20.51
2022-10-26T15:02:59.714Z,20.58
2022-10-26T15:03:59.732Z,20.54
2022-10-26T15:04:59.921Z,20.42
2022-10-26T15:05:59.710Z,20.42
2022-10-26T15:06:59.623Z,20.42
2022-10-26T15:07:59.589Z,20.42
2022-10-26T15:09:00.045Z,20.27
2022-10-26T15:09:59.770Z,20.12
2022-10-26T15:11:00.106Z,20.16
2022-10-26T15:11:59.636Z,20.06
2022-10-26T15:12:59.747Z,20.03
2022-10-26T15:13:59.661Z,20.08
2022-10-26T15:15:02.933Z,20.05
2022-10-26T15:16:00.700Z,19.88
2022-10-26T15:16:59.683Z,19.93
2022-10-26T15:17:59.633Z,19.78
2022-10-26T15:18:59.575Z,19.75
2022-10-26T15:19:59.633Z,19.65
2022-10-26T15:20:59.634Z,19.66
2022-10-26T15:21:59.526Z,19.65
2022-10-26T15:22:59.532Z,19.48
2022-10-26T15:23:59.472Z,19.42
2022-10-26T15:24:59.514Z,19.25
2022-10-26T15:25:59.676Z,19.21
2022-10-26T15:26:59.451Z,19.20
2022-10-26T15:27:59.521Z,19.15
2022-10-26T15:29:00.045Z,19.20
2022-10-26T15:29:59.467Z,19.06
2022-10-26T15:31:01.247Z,18.95
2022-10-26T15:32:00.612Z,18.91
2022-10-26T15:32:59.657Z,18.79
2022-10-26T15:33:59.611Z,18.68
2022-10-26T15:34:59.520Z,18.65
2022-10-26T15:35:59.569Z,18.72
2022-10-26T15:36:59.818Z,18.61
2022-10-26T15:38:00.047Z,18.58
2022-10-26T15:39:00.058Z,18.59
2022-10-26T15:40:00.254Z,18.62
2022-10-26T15:40:59.801Z,18.47
2022-10-26T15:41:59.935Z,18.40
2022-10-26T15:42:59.614Z,18.47
2022-10-26T15:43:59.762Z,18.44
2022-10-26T15:44:59.450Z,18.31
2022-10-26T15:45:59.647Z,18.21
2022-10-26T15:46:59.450Z,18.29
2022-10-26T15:48:00.096Z,18.17
2022-10-26T15:48:59.627Z,18.18
2022-10-26T15:49:59.409Z,18.03
2022-10-26T15:50:59.284Z,17.89
2022-10-26T15:51:59.474Z,17.92
2022-10-26T15:52:59.445Z,17.76
2022-10-26T15:53:59.358Z,17.66
2022-10-26T15:54:59.458Z,17.63
2022-10-26T15:55:59.557Z,17.54
2022-10-26T15:56:59.413Z,17.54
2022-10-26T15:57:59.527Z,17.44